Time;durP1;ratioP1;P1;durP2;ratioP2;P2;SDS_P1;SDS_P2;PMS_P1;PMS_P2;Temp;Humidity;BMP_temperature;BMP_pressure;BME280_temperature;BME280_humidity;BME280_pressure;Samples;Min_cycle;Max_cycle;Signal;HPM_P1;HPM_P2
2021/09/27 00:01:26;;;;;;;29.30;24.73;;;;;;;;;;5067390;28;20214;-74
2021/09/27 00:03:53;;;;;;;26.10;23.30;;;;;;;;;;5067374;28;20272;-74
2021/09/27 00:06:19;;;;;;;27.77;24.73;;;;;;;;;;5067663;28;20220;-74
2021/09/27 00:08:46;;;;;;;25.87;23.17;;;;;;;;;;5067470;28;20224;-74
2021/09/27 00:11:16;;;;;;;26.07;23.57;;;;;;;;;;5067676;28;20216;-74
2021/09/27 00:13:47;;;;;;;26.47;23.97;;;;;;;;;;5067250;28;20229;-74
2021/09/27 00:16:14;;;;;;;24.73;22.23;;;;;;;;;;5067463;28;20635;-74
2021/09/27 00:18:42;;;;;;;25.83;23.23;;;;;;;;;;5065703;28;20240;-74
2021/09/27 00:21:14;;;;;;;25.13;22.63;;;;;;;;;;5067008;28;20270;-74
2021/09/27 00:23:42;;;;;;;25.73;23.20;;;;;;;;;;5067415;28;20564;-74
2021/09/27 00:26:08;;;;;;;25.20;22.20;;;;;;;;;;5066908;28;20283;-74
2021/09/27 00:28:35;;;;;;;27.50;24.50;;;;;;;;;;5067164;28;20268;-74
2021/09/27 00:31:02;;;;;;;26.23;23.73;;;;;;;;;;5066958;28;20281;-74
2021/09/27 00:33:29;;;;;;;25.70;23.03;;;;;;;;;;5066843;28;20236;-74
2021/09/27 00:35:57;;;;;;;25.53;23.00;;;;;;;;;;5067185;28;20210;-74
2021/09/27 00:38:25;;;;;;;24.90;22.30;;;;;;;;;;5067041;28;20281;-74
2021/09/27 00:40:56;;;;;;;24.87;22.47;;;;;;;;;;5066692;28;20632;-74
2021/09/27 00:43:23;;;;;;;23.83;21.57;;;;;;;;;;5067065;28;20261;-74
2021/09/27 00:45:52;;;;;;;23.13;20.93;;;;;;;;;;5066549;28;20216;-74
2021/09/27 00:48:18;;;;;;;23.17;20.97;;;;;;;;;;5066876;28;20228;-74
2021/09/27 00:50:48;;;;;;;25.63;23.20;;;;;;;;;;5066664;28;20212;-74
2021/09/27 00:53:24;;;;;;;24.07;21.80;;;;;;;;;;5066529;28;20222;-74
2021/09/27 00:55:51;;;;;;;23.93;21.73;;;;;;;;;;5066903;28;20209;-74
2021/09/27 00:58:20;;;;;;;24.10;21.77;;;;;;;;;;5067171;28;20280;-74
2021/09/27 01:00:48;;;;;;;24.70;21.40;;;;;;;;;;5066850;28;21096;-74
2021/09/27 01:03:15;;;;;;;22.73;20.43;;;;;;;;;;5066381;28;20278;-74
2021/09/27 01:05:54;;;;;;;23.73;21.40;;;;;;;;;;5066919;28;20300;-74
2021/09/27 01:08:32;;;;;;;23.23;20.73;;;;;;;;;;5067040;28;20253;-74
2021/09/27 01:11:15;;;;;;;24.67;22.17;;;;;;;;;;5066863;28;20681;-74
2021/09/27 01:14:09;;;;;;;26.00;23.40;;;;;;;;;;5066560;28;20737;-74
2021/09/27 01:16:43;;;;;;;25.33;22.93;;;;;;;;;;5063843;28;20257;-74
2021/09/27 01:19:48;;;;;;;25.63;22.87;;;;;;;;;;5066115;28;20214;-74
2021/09/27 01:22:21;;;;;;;24.80;22.20;;;;;;;;;;5066791;28;20609;-74
2021/09/27 01:25:23;;;;;;;26.80;23.93;;;;;;;;;;5065851;28;20676;-74
2021/09/27 01:28:18;;;;;;;26.87;24.07;;;;;;;;;;5066428;28;20215;-76
2021/09/27 01:31:13;;;;;;;26.67;23.13;;;;;;;;;;5068644;28;20688;-74
2021/09/27 01:33:46;;;;;;;25.27;22.63;;;;;;;;;;5070117;28;20285;-74
2021/09/27 01:36:30;;;;;;;26.73;24.13;;;;;;;;;;5069948;28;20207;-74
2021/09/27 01:39:06;;;;;;;25.40;22.80;;;;;;;;;;5069787;28;20210;-74
2021/09/27 01:41:38;;;;;;;25.97;23.33;;;;;;;;;;5069923;28;20216;-74
2021/09/27 01:44:13;;;;;;;29.07;26.07;;;;;;;;;;5069599;28;20207;-74
2021/09/27 01:46:47;;;;;;;27.63;25.07;;;;;;;;;;5070003;28;20202;-74
2021/09/27 01:49:21;;;;;;;27.00;24.40;;;;;;;;;;5069736;28;20267;-74
2021/09/27 01:51:52;;;;;;;29.47;26.37;;;;;;;;;;5069922;28;20219;-75
2021/09/27 01:54:26;;;;;;;27.07;24.30;;;;;;;;;;5069434;28;20259;-74
2021/09/27 01:57:02;;;;;;;28.77;25.83;;;;;;;;;;5069423;28;20290;-74
2021/09/27 01:59:39;;;;;;;27.03;24.13;;;;;;;;;;5069987;28;20212;-74
2021/09/27 02:02:09;;;;;;;27.53;24.83;;;;;;;;;;5069830;28;20273;-74
2021/09/27 02:04:53;;;;;;;28.47;25.37;;;;;;;;;;5069415;28;20269;-74
2021/09/27 02:07:21;;;;;;;29.20;25.83;;;;;;;;;;5069677;28;20676;-74
2021/09/27 02:09:55;;;;;;;29.30;25.87;;;;;;;;;;5069037;28;20219;-74
2021/09/27 02:12:25;;;;;;;27.90;25.10;;;;;;;;;;5069895;28;20676;-74
2021/09/27 02:14:57;;;;;;;28.80;25.80;;;;;;;;;;5069103;28;20235;-74
2021/09/27 02:17:29;;;;;;;29.10;26.10;;;;;;;;;;5069430;28;20231;-75
2021/09/27 02:20:03;;;;;;;29.57;25.70;;;;;;;;;;5068676;28;20225;-74
2021/09/27 02:22:35;;;;;;;29.00;26.00;;;;;;;;;;5069466;28;21010;-74
2021/09/27 02:25:10;;;;;;;28.67;25.67;;;;;;;;;;5068877;28;20255;-74
2021/09/27 02:27:37;;;;;;;29.73;26.63;;;;;;;;;;5069317;28;20620;-74
2021/09/27 02:30:04;;;;;;;31.97;27.33;;;;;;;;;;5068704;28;20219;-74
2021/09/27 02:32:36;;;;;;;30.40;27.20;;;;;;;;;;5069011;28;20300;-74
2021/09/27 02:35:11;;;;;;;28.57;25.47;;;;;;;;;;5068377;28;20267;-74
2021/09/27 02:37:43;;;;;;;29.00;25.80;;;;;;;;;;5068978;28;20201;-74
2021/09/27 02:40:16;;;;;;;29.90;26.80;;;;;;;;;;5068613;28;20543;-76
2021/09/27 02:42:48;;;;;;;30.67;27.33;;;;;;;;;;5068790;28;20202;-74
2021/09/27 02:45:17;;;;;;;31.47;28.07;;;;;;;;;;5068777;28;20545;-74
2021/09/27 02:47:47;;;;;;;31.53;28.23;;;;;;;;;;5068634;28;20237;-74
2021/09/27 02:50:17;;;;;;;31.10;27.67;;;;;;;;;;5068640;28;20213;-74
2021/09/27 02:52:43;;;;;;;34.80;28.40;;;;;;;;;;5068328;28;20211;-74
2021/09/27 02:55:13;;;;;;;32.43;28.97;;;;;;;;;;5068430;28;20246;-74
2021/09/27 02:58:06;;;;;;;32.00;28.60;;;;;;;;;;5068646;28;20673;-74
2021/09/27 03:00:41;;;;;;;33.37;29.67;;;;;;;;;;5068527;28;20214;-74
2021/09/27 03:03:14;;;;;;;33.27;28.13;;;;;;;;;;5068526;28;20609;-74
2021/09/27 03:05:55;;;;;;;34.63;28.90;;;;;;;;;;5068352;28;20299;-74
2021/09/27 03:08:49;;;;;;;36.40;28.77;;;;;;;;;;5068392;28;20638;-74
2021/09/27 03:11:39;;;;;;;31.87;28.43;;;;;;;;;;5068178;28;20214;-76
2021/09/27 03:14:15;;;;;;;36.23;28.00;;;;;;;;;;5067859;28;20282;-74
2021/09/27 03:16:55;;;;;;;33.23;29.37;;;;;;;;;;5067426;28;20241;-74
2021/09/27 03:19:35;;;;;;;33.80;29.20;;;;;;;;;;5067089;28;20218;-74
2021/09/27 03:22:13;;;;;;;32.93;29.17;;;;;;;;;;5067999;28;20213;-74
2021/09/27 03:24:54;;;;;;;33.33;29.47;;;;;;;;;;5068068;28;20202;-74
2021/09/27 03:27:29;;;;;;;32.87;29.40;;;;;;;;;;5068119;28;20202;-74
2021/09/27 03:30:09;;;;;;;35.80;29.80;;;;;;;;;;5067838;28;20821;-74
2021/09/27 03:32:51;;;;;;;34.03;28.30;;;;;;;;;;5067833;28;20222;-74
2021/09/27 03:35:24;;;;;;;32.77;28.07;;;;;;;;;;5067611;28;20358;-74
2021/09/27 03:38:00;;;;;;;37.40;30.17;;;;;;;;;;5068032;28;20210;-74
2021/09/27 03:40:39;;;;;;;32.33;28.80;;;;;;;;;;5067633;28;20240;-73
2021/09/27 03:43:12;;;;;;;30.07;25.53;;;;;;;;;;5067719;28;20396;-76
2021/09/27 03:45:48;;;;;;;31.17;27.10;;;;;;;;;;5067568;28;20217;-74
2021/09/27 03:48:19;;;;;;;32.53;28.10;;;;;;;;;;5067795;28;20229;-74
2021/09/27 03:50:51;;;;;;;33.70;28.47;;;;;;;;;;5067755;28;20958;-74
2021/09/27 03:53:26;;;;;;;32.33;28.83;;;;;;;;;;5066589;28;20206;-74
2021/09/27 03:55:56;;;;;;;34.63;30.13;;;;;;;;;;5067256;28;20198;-73
2021/09/27 03:58:27;;;;;;;36.93;29.07;;;;;;;;;;5067703;28;20269;-73
2021/09/27 04:00:59;;;;;;;35.80;29.30;;;;;;;;;;5067048;28;20212;-74
2021/09/27 04:03:43;;;;;;;37.17;28.40;;;;;;;;;;5067580;28;20306;-73
2021/09/27 04:06:28;;;;;;;34.87;28.03;;;;;;;;;;5067490;28;20210;-73
2021/09/27 04:09:01;;;;;;;33.97;27.57;;;;;;;;;;5066995;28;20263;-73
2021/09/27 04:11:34;;;;;;;34.60;29.43;;;;;;;;;;5067623;28;20710;-74
2021/09/27 04:14:06;;;;;;;35.10;28.80;;;;;;;;;;5066895;28;20226;-73
2021/09/27 04:16:44;;;;;;;37.40;30.43;;;;;;;;;;5066935;28;20206;-73
2021/09/27 04:19:18;;;;;;;40.77;31.07;;;;;;;;;;5067466;28;20218;-73
2021/09/27 04:21:55;;;;;;;36.37;29.83;;;;;;;;;;5066922;28;20251;-73
2021/09/27 04:24:40;;;;;;;33.80;29.23;;;;;;;;;;5067187;28;20222;-73
2021/09/27 04:27:19;;;;;;;40.00;30.80;;;;;;;;;;5067123;28;20218;-73
2021/09/27 04:30:11;;;;;;;35.80;30.87;;;;;;;;;;5067034;28;20668;-73
2021/09/27 04:32:54;;;;;;;38.55;34.17;;;;;;;;;;5065317;28;20495;-71
2021/09/27 04:35:33;;;;;;;36.90;31.60;;;;;;;;;;5067179;28;20233;-72
2021/09/27 04:38:01;;;;;;;35.77;29.90;;;;;;;;;;5066866;28;20206;-71
2021/09/27 04:40:41;;;;;;;40.27;30.50;;;;;;;;;;5067110;28;20211;-71
2021/09/27 04:43:23;;;;;;;39.40;31.10;;;;;;;;;;5066740;28;20660;-72
2021/09/27 04:46:00;;;;;;;36.80;31.20;;;;;;;;;;5066974;28;20205;-71
2021/09/27 04:48:43;;;;;;;47.37;32.33;;;;;;;;;;5067073;28;20871;-71
2021/09/27 04:51:18;;;;;;;45.10;34.47;;;;;;;;;;5067164;28;20213;-71
2021/09/27 04:54:06;;;;;;;40.23;33.07;;;;;;;;;;5066003;28;20241;-71
2021/09/27 04:56:42;;;;;;;42.70;34.30;;;;;;;;;;5066870;28;20559;-74
2021/09/27 04:59:19;;;;;;;49.00;37.03;;;;;;;;;;5067015;28;20680;-71
2021/09/27 05:02:09;;;;;;;50.40;38.03;;;;;;;;;;5066323;28;20214;-72
2021/09/27 05:04:48;;;;;;;48.70;36.80;;;;;;;;;;5065667;28;20975;-71
2021/09/27 05:07:50;;;;;;;53.40;38.83;;;;;;;;;;5070578;28;20214;-71
2021/09/27 05:10:43;;;;;;;57.67;42.53;;;;;;;;;;5056528;28;20218;-71
2021/09/27 05:13:25;;;;;;;64.30;43.27;;;;;;;;;;5069563;28;20209;-71
2021/09/27 05:16:10;;;;;;;60.40;42.87;;;;;;;;;;5068702;28;20266;-71
2021/09/27 05:18:59;;;;;;;67.50;45.03;;;;;;;;;;5069225;28;20238;-71
2021/09/27 05:21:46;;;;;;;72.30;46.30;;;;;;;;;;5065321;28;20215;-73
2021/09/27 05:24:29;;;;;;;64.43;46.43;;;;;;;;;;5068280;28;20245;-74
2021/09/27 05:27:10;;;;;;;71.80;47.07;;;;;;;;;;5068151;28;20248;-74
2021/09/27 05:29:53;;;;;;;71.43;48.00;;;;;;;;;;5068701;28;20249;-73
2021/09/27 05:32:31;;;;;;;68.07;47.57;;;;;;;;;;5068846;28;20226;-73
2021/09/27 05:35:11;;;;;;;69.30;48.93;;;;;;;;;;5067952;28;20221;-73
2021/09/27 05:37:52;;;;;;;75.10;49.40;;;;;;;;;;5068317;28;20205;-73
2021/09/27 05:40:31;;;;;;;71.07;49.40;;;;;;;;;;5068840;28;20206;-73
2021/09/27 05:43:14;;;;;;;71.67;49.83;;;;;;;;;;5069058;28;21080;-73
2021/09/27 05:45:50;;;;;;;83.60;52.77;;;;;;;;;;5068387;28;20201;-73
2021/09/27 05:48:27;;;;;;;79.13;52.50;;;;;;;;;;5068954;28;20225;-71
2021/09/27 05:51:01;;;;;;;73.47;51.57;;;;;;;;;;5068836;28;20214;-73
2021/09/27 05:53:32;;;;;;;82.03;52.27;;;;;;;;;;5067436;28;20249;-73
2021/09/27 05:56:08;;;;;;;82.53;54.17;;;;;;;;;;5067916;28;20263;-73
2021/09/27 05:58:44;;;;;;;85.43;53.83;;;;;;;;;;5068315;28;20276;-72
2021/09/27 06:01:22;;;;;;;84.50;54.97;;;;;;;;;;5068111;28;20287;-72
2021/09/27 06:04:05;;;;;;;78.90;51.37;;;;;;;;;;5068343;28;20271;-72
2021/09/27 06:06:36;;;;;;;84.77;52.97;;;;;;;;;;5068028;28;20256;-72
2021/09/27 06:09:18;;;;;;;109.77;54.53;;;;;;;;;;5066993;28;20206;-72
2021/09/27 06:11:53;;;;;;;87.70;52.67;;;;;;;;;;5067260;28;20566;-72
2021/09/27 06:14:20;;;;;;;76.13;48.77;;;;;;;;;;5066686;28;20248;-72
2021/09/27 06:17:01;;;;;;;77.30;50.77;;;;;;;;;;5065551;28;20289;-72
2021/09/27 06:19:38;;;;;;;81.50;53.03;;;;;;;;;;5066788;28;20206;-72
2021/09/27 06:22:17;;;;;;;85.40;57.53;;;;;;;;;;5066994;28;20232;-72
2021/09/27 06:24:56;;;;;;;90.37;55.73;;;;;;;;;;5066362;28;20202;-73
2021/09/27 06:27:32;;;;;;;90.13;54.53;;;;;;;;;;5067003;28;20652;-72
2021/09/27 06:30:06;;;;;;;86.60;55.17;;;;;;;;;;5067292;28;20264;-72
2021/09/27 06:32:50;;;;;;;86.87;58.47;;;;;;;;;;5067313;28;21187;-72
2021/09/27 06:35:19;;;;;;;91.50;59.70;;;;;;;;;;5066530;28;20700;-72
2021/09/27 06:37:46;;;;;;;86.97;53.97;;;;;;;;;;5066203;28;20848;-72
2021/09/27 06:40:14;;;;;;;87.47;58.43;;;;;;;;;;5066440;28;20214;-72
2021/09/27 06:42:41;;;;;;;78.83;54.33;;;;;;;;;;5066832;28;21111;-72
2021/09/27 06:45:09;;;;;;;73.23;51.73;;;;;;;;;;5065962;28;20215;-72
2021/09/27 06:47:38;;;;;;;67.10;48.40;;;;;;;;;;5065931;28;20232;-73
2021/09/27 06:50:06;;;;;;;66.20;46.53;;;;;;;;;;5066515;28;20656;-72
2021/09/27 06:52:32;;;;;;;64.83;45.97;;;;;;;;;;5066329;28;20215;-72
2021/09/27 06:55:01;;;;;;;73.37;47.13;;;;;;;;;;5065870;28;20251;-72
2021/09/27 06:57:28;;;;;;;58.33;44.43;;;;;;;;;;5065988;28;20204;-72
2021/09/27 06:59:54;;;;;;;53.37;41.47;;;;;;;;;;5066287;28;20220;-72
2021/09/27 07:02:21;;;;;;;56.80;40.83;;;;;;;;;;5065396;28;20233;-72
2021/09/27 07:04:48;;;;;;;45.83;36.07;;;;;;;;;;5066322;28;20645;-72
2021/09/27 07:07:15;;;;;;;49.73;36.70;;;;;;;;;;5065207;28;20216;-72
2021/09/27 07:09:41;;;;;;;45.20;36.80;;;;;;;;;;5066353;28;20288;-72
2021/09/27 07:12:10;;;;;;;44.63;36.73;;;;;;;;;;5065482;28;20207;-72
2021/09/27 07:14:37;;;;;;;40.53;34.97;;;;;;;;;;5066161;28;20280;-72
2021/09/27 07:17:03;;;;;;;38.60;34.10;;;;;;;;;;5065814;28;20244;-72
2021/09/27 07:19:30;;;;;;;37.27;32.87;;;;;;;;;;5065305;28;20228;-72
2021/09/27 07:21:57;;;;;;;41.23;32.60;;;;;;;;;;5065614;28;20659;-72
2021/09/27 07:24:24;;;;;;;39.27;32.70;;;;;;;;;;5066030;28;20213;-72
2021/09/27 07:26:51;;;;;;;37.93;31.27;;;;;;;;;;5065862;28;20653;-72
2021/09/27 07:29:18;;;;;;;35.53;31.47;;;;;;;;;;5065225;28;20261;-72
2021/09/27 07:31:45;;;;;;;31.97;28.50;;;;;;;;;;5064902;28;20718;-72
2021/09/27 07:34:11;;;;;;;30.53;26.93;;;;;;;;;;5065121;28;20214;-72
2021/09/27 07:36:38;;;;;;;34.03;30.33;;;;;;;;;;5065017;28;20313;-72
2021/09/27 07:39:08;;;;;;;34.07;30.00;;;;;;;;;;5064214;28;20262;-72
2021/09/27 07:41:35;;;;;;;33.27;29.77;;;;;;;;;;5065025;28;20217;-72
2021/09/27 07:44:02;;;;;;;31.90;28.27;;;;;;;;;;5064337;28;21073;-72
2021/09/27 07:46:28;;;;;;;34.03;28.60;;;;;;;;;;5065261;28;20219;-72
2021/09/27 07:48:55;;;;;;;32.03;27.80;;;;;;;;;;5065012;28;20260;-72
2021/09/27 07:51:22;;;;;;;31.57;28.17;;;;;;;;;;5064712;28;20220;-72
2021/09/27 07:53:49;;;;;;;29.93;26.70;;;;;;;;;;5065032;28;20241;-72
2021/09/27 07:56:17;;;;;;;30.13;26.73;;;;;;;;;;5064922;28;20632;-71
2021/09/27 07:58:45;;;;;;;30.43;25.30;;;;;;;;;;5064913;28;20311;-73
2021/09/27 08:01:13;;;;;;;29.60;26.77;;;;;;;;;;5065165;28;20289;-73
2021/09/27 08:03:39;;;;;;;27.20;24.53;;;;;;;;;;5065466;28;20755;-73
2021/09/27 08:06:06;;;;;;;28.37;25.53;;;;;;;;;;5065140;28;20217;-73
2021/09/27 08:08:33;;;;;;;26.77;24.07;;;;;;;;;;5065547;28;20216;-73
2021/09/27 08:11:00;;;;;;;26.77;24.07;;;;;;;;;;5065231;28;20222;-73
2021/09/27 08:13:31;;;;;;;26.23;23.53;;;;;;;;;;5065126;28;21220;-73
2021/09/27 08:15:57;;;;;;;25.90;23.33;;;;;;;;;;5065369;28;20240;-73
2021/09/27 08:18:24;;;;;;;25.23;22.73;;;;;;;;;;5064796;28;20234;-73
2021/09/27 08:20:53;;;;;;;24.60;22.17;;;;;;;;;;5064999;28;20651;-73
2021/09/27 08:23:21;;;;;;;29.43;22.53;;;;;;;;;;5064664;28;20220;-71
2021/09/27 08:25:49;;;;;;;24.03;21.43;;;;;;;;;;5065046;28;20213;-73
2021/09/27 08:28:19;;;;;;;22.37;20.07;;;;;;;;;;5064892;28;20640;-74
2021/09/27 08:30:50;;;;;;;23.20;20.50;;;;;;;;;;5064195;28;20274;-73
2021/09/27 08:33:18;;;;;;;21.70;19.47;;;;;;;;;;5064501;28;20271;-73
2021/09/27 08:35:45;;;;;;;21.10;18.93;;;;;;;;;;5064740;28;20239;-71
2021/09/27 08:38:11;;;;;;;19.77;17.87;;;;;;;;;;5063417;28;20213;-71
2021/09/27 08:40:52;;;;;;;21.40;19.20;;;;;;;;;;5069286;28;20221;-71
2021/09/27 08:43:24;;;;;;;20.30;18.30;;;;;;;;;;5068326;28;20216;-71
2021/09/27 08:45:54;;;;;;;18.33;16.53;;;;;;;;;;5068743;28;20744;-71
2021/09/27 08:48:27;;;;;;;20.57;17.20;;;;;;;;;;5068500;28;20564;-71
2021/09/27 08:50:54;;;;;;;16.50;14.90;;;;;;;;;;5068541;28;20263;-71
2021/09/27 08:53:25;;;;;;;19.33;15.03;;;;;;;;;;5068408;28;20222;-71
2021/09/27 08:55:55;;;;;;;16.60;14.90;;;;;;;;;;5068180;28;20233;-71
2021/09/27 08:58:27;;;;;;;18.53;16.63;;;;;;;;;;5068343;28;20217;-71
2021/09/27 09:00:59;;;;;;;19.67;16.00;;;;;;;;;;5068413;28;20214;-71
2021/09/27 09:03:29;;;;;;;17.07;15.30;;;;;;;;;;5068190;28;20322;-71
2021/09/27 09:06:01;;;;;;;17.10;14.77;;;;;;;;;;5069013;28;20302;-71
2021/09/27 09:08:33;;;;;;;17.33;15.23;;;;;;;;;;5067846;28;20210;-72
2021/09/27 09:11:02;;;;;;;16.57;14.83;;;;;;;;;;5067526;28;20217;-71
2021/09/27 09:13:34;;;;;;;17.83;15.77;;;;;;;;;;5066980;28;20628;-74
2021/09/27 09:16:07;;;;;;;17.20;14.40;;;;;;;;;;5068189;28;20308;-74
2021/09/27 09:18:37;;;;;;;16.73;15.23;;;;;;;;;;5068608;28;20260;-74
2021/09/27 09:21:08;;;;;;;19.70;15.87;;;;;;;;;;5068303;28;20218;-74
2021/09/27 09:23:39;;;;;;;19.50;16.17;;;;;;;;;;5068514;28;20218;-74
2021/09/27 09:26:08;;;;;;;48.87;18.50;;;;;;;;;;5068015;28;20227;-74
2021/09/27 09:28:36;;;;;;;23.00;15.57;;;;;;;;;;5068506;28;20222;-74
2021/09/27 09:31:07;;;;;;;16.17;14.50;;;;;;;;;;5067889;28;20206;-74
2021/09/27 09:33:41;;;;;;;26.80;15.63;;;;;;;;;;5068036;28;20224;-74
2021/09/27 09:36:10;;;;;;;19.80;15.50;;;;;;;;;;5067364;28;20379;-74
2021/09/27 09:38:39;;;;;;;16.87;15.17;;;;;;;;;;5067814;28;20313;-74
2021/09/27 09:41:07;;;;;;;16.33;14.10;;;;;;;;;;5067214;28;20210;-74
2021/09/27 09:43:37;;;;;;;16.57;14.80;;;;;;;;;;5068081;28;20218;-74
2021/09/27 09:46:08;;;;;;;15.33;13.80;;;;;;;;;;5068122;28;20213;-74
2021/09/27 09:48:36;;;;;;;15.80;14.20;;;;;;;;;;5067709;28;20226;-73
2021/09/27 09:51:22;;;;;;;21.97;14.73;;;;;;;;;;5066449;28;20217;-73
2021/09/27 09:54:03;;;;;;;23.57;14.80;;;;;;;;;;5067280;28;20835;-74
2021/09/27 09:56:32;;;;;;;16.87;15.20;;;;;;;;;;5067568;28;20263;-74
2021/09/27 09:59:00;;;;;;;17.37;15.13;;;;;;;;;;5067579;28;20223;-71
2021/09/27 10:01:30;;;;;;;16.60;15.00;;;;;;;;;;5067355;28;20900;-71
2021/09/27 10:04:00;;;;;;;18.23;14.80;;;;;;;;;;5067367;28;20237;-71
2021/09/27 10:06:34;;;;;;;15.70;14.20;;;;;;;;;;5067599;28;20272;-71
2021/09/27 10:09:05;;;;;;;15.63;13.97;;;;;;;;;;5067225;28;20214;-71
2021/09/27 10:11:35;;;;;;;16.97;14.17;;;;;;;;;;5067370;28;20640;-71
2021/09/27 10:14:18;;;;;;;16.63;14.87;;;;;;;;;;5066019;28;20645;-71
2021/09/27 10:16:49;;;;;;;20.00;14.63;;;;;;;;;;5066582;28;20234;-71
2021/09/27 10:19:24;;;;;;;20.87;14.97;;;;;;;;;;5066534;28;20213;-71
2021/09/27 10:21:57;;;;;;;20.37;15.13;;;;;;;;;;5066781;28;20545;-71
2021/09/27 10:24:32;;;;;;;20.20;14.73;;;;;;;;;;5066654;28;20775;-71
2021/09/27 10:27:02;;;;;;;18.67;13.53;;;;;;;;;;5067010;28;20209;-73
2021/09/27 10:29:31;;;;;;;14.57;13.07;;;;;;;;;;5066890;28;20211;-75
2021/09/27 10:32:06;;;;;;;16.00;13.33;;;;;;;;;;5067108;28;20222;-74
2021/09/27 10:34:34;;;;;;;14.77;12.67;;;;;;;;;;5067569;28;20274;-74
2021/09/27 10:37:07;;;;;;;14.37;12.90;;;;;;;;;;5066815;28;20241;-73
2021/09/27 10:39:34;;;;;;;15.40;12.07;;;;;;;;;;5067189;28;20259;-74
2021/09/27 10:42:03;;;;;;;14.50;12.83;;;;;;;;;;5066878;28;20357;-74
2021/09/27 10:44:34;;;;;;;13.67;12.37;;;;;;;;;;5066524;28;20215;-73
2021/09/27 10:47:06;;;;;;;15.10;12.53;;;;;;;;;;5066831;28;20230;-73
2021/09/27 10:49:42;;;;;;;15.47;12.33;;;;;;;;;;5066947;28;20760;-72
2021/09/27 10:52:21;;;;;;;13.60;12.20;;;;;;;;;;5066427;28;20206;-72
2021/09/27 10:55:01;;;;;;;13.57;12.13;;;;;;;;;;5066405;28;20268;-72
2021/09/27 10:57:39;;;;;;;18.47;11.93;;;;;;;;;;5066582;28;20224;-72
2021/09/27 11:00:17;;;;;;;13.47;12.17;;;;;;;;;;5066555;28;20216;-72
2021/09/27 11:02:52;;;;;;;19.57;11.67;;;;;;;;;;5066118;28;20688;-72
2021/09/27 11:05:31;;;;;;;15.33;12.07;;;;;;;;;;5066317;28;20216;-72
2021/09/27 11:08:07;;;;;;;44.47;13.60;;;;;;;;;;5066214;28;20273;-71
2021/09/27 11:10:41;;;;;;;13.03;11.77;;;;;;;;;;5066410;28;20216;-72
2021/09/27 11:13:11;;;;;;;18.67;11.13;;;;;;;;;;5065727;28;20343;-72
2021/09/27 11:15:42;;;;;;;13.90;10.43;;;;;;;;;;5065970;28;20223;-71
2021/09/27 11:18:15;;;;;;;15.97;10.87;;;;;;;;;;5065438;28;21172;-72
2021/09/27 11:21:02;;;;;;;13.27;11.37;;;;;;;;;;5065988;28;20223;-71
2021/09/27 11:23:35;;;;;;;11.03;9.33;;;;;;;;;;5065807;28;20593;-72
2021/09/27 11:26:30;;;;;;;30.53;11.43;;;;;;;;;;5066040;28;20271;-72
2021/09/27 11:29:22;;;;;;;11.23;10.10;;;;;;;;;;5043705;28;20739;-72
2021/09/27 11:32:26;;;;;;;11.37;9.33;;;;;;;;;;5065590;28;20218;-74
2021/09/27 11:35:07;;;;;;;12.07;9.83;;;;;;;;;;5065450;28;20215;-74
2021/09/27 11:37:36;;;;;;;13.90;9.40;;;;;;;;;;5065539;28;20248;-74
2021/09/27 11:40:18;;;;;;;10.17;9.17;;;;;;;;;;5065331;28;20207;-74
2021/09/27 11:42:53;;;;;;;17.10;10.33;;;;;;;;;;5064734;28;20219;-75
2021/09/27 11:45:50;;;;;;;21.10;11.27;;;;;;;;;;5065552;28;20213;-73
2021/09/27 11:48:48;;;;;;;19.50;10.10;;;;;;;;;;5065217;28;20237;-73
2021/09/27 11:51:29;;;;;;;30.67;10.43;;;;;;;;;;5065233;28;20262;-72
2021/09/27 11:54:10;;;;;;;15.13;8.60;;;;;;;;;;5064909;28;20243;-72
2021/09/27 11:56:45;;;;;;;37.27;12.07;;;;;;;;;;5065472;28;20574;-72
2021/09/27 11:59:21;;;;;;;14.20;7.77;;;;;;;;;;5064247;28;20218;-72
2021/09/27 12:01:54;;;;;;;14.10;8.00;;;;;;;;;;5065096;28;20556;-72
2021/09/27 12:04:39;;;;;;;8.30;7.47;;;;;;;;;;5065550;28;20210;-72
2021/09/27 12:07:14;;;;;;;9.73;7.77;;;;;;;;;;5065405;28;20211;-75
2021/09/27 12:09:46;;;;;;;10.10;6.60;;;;;;;;;;5065046;28;20740;-75
2021/09/27 12:12:22;;;;;;;8.83;7.00;;;;;;;;;;5064390;28;20659;-73
2021/09/27 12:14:49;;;;;;;10.90;7.33;;;;;;;;;;5064047;28;20215;-73
2021/09/27 12:17:20;;;;;;;10.40;7.33;;;;;;;;;;5064628;28;20319;-73
2021/09/27 12:19:49;;;;;;;7.93;7.13;;;;;;;;;;5065672;28;20233;-73
2021/09/27 12:22:22;;;;;;;6.53;5.93;;;;;;;;;;5065043;28;20646;-73
2021/09/27 12:24:49;;;;;;;11.43;6.93;;;;;;;;;;5065222;28;20206;-73
2021/09/27 12:27:18;;;;;;;10.07;6.93;;;;;;;;;;5064838;28;20285;-73
2021/09/27 12:29:51;;;;;;;16.60;6.83;;;;;;;;;;5065725;28;20628;-73
2021/09/27 12:32:25;;;;;;;9.00;6.50;;;;;;;;;;5065285;28;20238;-73
2021/09/27 12:34:52;;;;;;;8.13;6.67;;;;;;;;;;5064830;28;20215;-73
2021/09/27 12:37:21;;;;;;;7.93;6.27;;;;;;;;;;5064523;28;20250;-75
2021/09/27 12:39:49;;;;;;;9.00;6.83;;;;;;;;;;5065168;28;20723;-73
2021/09/27 12:42:18;;;;;;;20.50;6.50;;;;;;;;;;5064386;28;20213;-74
2021/09/27 12:44:49;;;;;;;14.73;6.33;;;;;;;;;;5064968;28;20220;-73
2021/09/27 12:47:16;;;;;;;9.97;6.00;;;;;;;;;;5064850;28;20636;-73
2021/09/27 12:49:49;;;;;;;11.30;6.40;;;;;;;;;;5065164;28;20222;-73
2021/09/27 12:52:26;;;;;;;8.30;6.27;;;;;;;;;;5064577;28;20209;-73
2021/09/27 12:54:54;;;;;;;15.90;6.27;;;;;;;;;;5064409;28;20721;-73
2021/09/27 12:57:26;;;;;;;9.67;6.23;;;;;;;;;;5064139;28;20234;-73
2021/09/27 12:59:54;;;;;;;9.73;6.13;;;;;;;;;;5064917;28;20205;-75
2021/09/27 13:02:22;;;;;;;10.27;5.20;;;;;;;;;;5064640;28;21297;-75
2021/09/27 13:04:52;;;;;;;8.23;5.37;;;;;;;;;;5064821;28;20278;-76
2021/09/27 13:07:23;;;;;;;9.43;5.00;;;;;;;;;;5064635;28;20202;-76
2021/09/27 13:10:04;;;;;;;5.47;4.97;;;;;;;;;;5064840;28;20712;-75
2021/09/27 13:12:33;;;;;;;8.37;5.13;;;;;;;;;;5064635;28;20209;-76
2021/09/27 13:15:06;;;;;;;5.27;4.77;;;;;;;;;;5064362;28;20258;-75
2021/09/27 13:17:33;;;;;;;15.00;4.13;;;;;;;;;;5064615;28;20241;-75
2021/09/27 13:20:03;;;;;;;7.30;3.90;;;;;;;;;;5064836;28;20573;-75
2021/09/27 13:22:41;;;;;;;6.03;4.03;;;;;;;;;;5064368;28;20734;-75
2021/09/27 13:25:15;;;;;;;8.53;4.23;;;;;;;;;;5065478;28;20223;-75
2021/09/27 13:27:46;;;;;;;5.47;3.90;;;;;;;;;;5068107;28;20221;-75
2021/09/27 13:30:19;;;;;;;12.03;4.20;;;;;;;;;;5068363;28;20206;-76
2021/09/27 13:32:54;;;;;;;8.73;4.43;;;;;;;;;;5068019;28;20248;-73
2021/09/27 13:35:27;;;;;;;5.10;3.80;;;;;;;;;;5067548;28;20201;-76
2021/09/27 13:38:04;;;;;;;6.90;4.07;;;;;;;;;;5067612;28;20225;-75
2021/09/27 13:40:35;;;;;;;15.20;4.80;;;;;;;;;;5068158;28;20245;-76
2021/09/27 13:43:18;;;;;;;5.20;3.70;;;;;;;;;;5067774;28;20233;-74
2021/09/27 13:45:48;;;;;;;6.37;4.63;;;;;;;;;;5067948;28;20302;-75
2021/09/27 13:48:14;;;;;;;7.40;4.17;;;;;;;;;;5067717;28;20232;-75
2021/09/27 13:50:44;;;;;;;8.37;4.87;;;;;;;;;;5068120;28;20216;-76
2021/09/27 13:53:16;;;;;;;6.50;5.60;;;;;;;;;;5067469;28;20212;-77
2021/09/27 13:55:43;;;;;;;6.70;5.00;;;;;;;;;;5071056;28;20298;-78
2021/09/27 13:58:10;;;;;;;7.87;7.00;;;;;;;;;;5070164;28;20250;-78
2021/09/27 14:00:36;;;;;;;8.43;6.30;;;;;;;;;;5072440;28;20223;-78
2021/09/27 14:03:04;;;;;;;7.17;6.53;;;;;;;;;;5070514;28;20824;-77
2021/09/27 14:05:31;;;;;;;7.73;6.97;;;;;;;;;;5060556;28;20213;-79
2021/09/27 14:07:59;;;;;;;8.50;6.27;;;;;;;;;;5071253;28;20212;-78
2021/09/27 14:10:27;;;;;;;9.00;6.00;;;;;;;;;;5068749;28;20844;-78
2021/09/27 14:12:53;;;;;;;7.57;6.80;;;;;;;;;;5068587;28;20228;-78
2021/09/27 14:15:20;;;;;;;8.80;7.47;;;;;;;;;;5067128;28;20210;-76
2021/09/27 14:17:47;;;;;;;7.40;6.70;;;;;;;;;;5067769;28;20234;-77
2021/09/27 14:20:15;;;;;;;8.70;7.87;;;;;;;;;;5068348;28;20687;-77
2021/09/27 14:22:41;;;;;;;9.30;8.40;;;;;;;;;;5066598;28;20217;-77
2021/09/27 14:25:09;;;;;;;8.43;7.73;;;;;;;;;;5068956;28;20659;-78
2021/09/27 14:27:37;;;;;;;10.13;8.90;;;;;;;;;;5067316;28;20212;-77
2021/09/27 14:30:04;;;;;;;12.73;9.50;;;;;;;;;;5067301;28;20217;-77
2021/09/27 14:32:31;;;;;;;11.63;10.43;;;;;;;;;;5068057;28;20315;-77
2021/09/27 14:34:57;;;;;;;10.57;7.10;;;;;;;;;;5067086;28;20205;-76
2021/09/27 14:37:26;;;;;;;5.70;5.20;;;;;;;;;;5066263;28;20763;-77
2021/09/27 14:39:53;;;;;;;5.27;4.77;;;;;;;;;;5066061;28;20249;-75
2021/09/27 14:42:20;;;;;;;6.23;4.83;;;;;;;;;;5066946;28;20292;-74
2021/09/27 14:44:48;;;;;;;5.50;5.00;;;;;;;;;;5066889;28;20619;-76
2021/09/27 14:47:19;;;;;;;5.47;5.00;;;;;;;;;;5066427;28;20210;-75
2021/09/27 14:49:45;;;;;;;4.10;3.70;;;;;;;;;;5066788;28;20209;-75
2021/09/27 14:52:12;;;;;;;5.97;4.17;;;;;;;;;;5066846;28;20209;-76
2021/09/27 14:54:38;;;;;;;4.57;4.03;;;;;;;;;;5066231;28;20240;-76
2021/09/27 14:57:05;;;;;;;5.40;4.60;;;;;;;;;;5066632;28;20215;-75